Terminal Aerodrome Forecast
Issued by NWS

Home | Current Version | Previous Version | Text Only | Print | Product List | Glossary On
Versions: 1 2 3 4 5 6 7 8 9 10 11 12 13 14 15 16 17
000
FTUS43 KDMX 260616 AAA
TAFMCW
TAF AMD
KMCW 260616Z 2606/2706 30008KT 3SM -RA BR OVC004
     FM260800 31010KT P6SM VCSH OVC006
     FM261500 32014G21KT P6SM OVC006
     FM261800 32013G20KT P6SM OVC010=

USA.gov is the U.S. government's official web portal to all federal, state and local government web resources and services.